Nederlandse vliegveldverwachtingen (TAF)

Luchtvaartmeteorologische informatie voor operationeel gebruik en vluchtvoorbereiding is beschikbaar op www.luchtvaartmeteo.nl.

ZCZC
FC050900 EHGR RRA GILZE-RIJEN/GILZE-RIJEN   NLD   14 m.
TAF EHGR 050933Z 0510/0522 04009KT CAVOK=

ZCZC
FC050900 EHWO RRD WOENSDRECHT/WOENSDRECHT   NLD   19 m.
TAF EHWO 050933Z 0510/0522 06012KT CAVOK
    BECMG 0515/0517 05008KT=

ZCZC
FC051700 EHLW RRA LEEUWARDEN/LEEUWARDEN   NLD   1 m.
TAF EHLW 051724Z 0518/0606 36006KT 9999 SCT045
    BECMG 0523/0601 28004KT=

ZCZC
FC051700 EHVK RRB VOLKEL/VOLKEL   NLD   21 m.
TAF EHVK 051725Z 0518/0606 04005KT CAVOK=

ZCZC
FC051700 EHKD RRC DE KOOY/DE KOOY   NLD   1 m.
TAF EHKD 051726Z 0518/0606 36004KT 9999 CAVOK=

ZCZC
FT051700 EHLE     LELYSTAD/LELYSTAD   NLD   -3 m.
TAF COR EHLE 051712Z 0518/0624 36005KT 9999 FEW040
    BECMG 0621/0624 30005KT 2500 MIFG BCFG=

ZCZC
FT051700 EHAM     AMSTERDAM/SCHIPHOL   NLD   -3 m.
TAF COR EHAM 051715Z 0518/0624 36005KT 9999 FEW040
    PROB30 0621/0624 VRB03KT 2500 MIFG BCFG SCT030=

ZCZC
FT051700 EHRD     ROTTERDAM/THE HAGUE AIRPORT   NLD   -5 m.
TAF COR EHRD 051717Z 0518/0624 03005KT 9999 FEW040
    PROB40 0621/0624 1200 BCFG=

ZCZC
FT051700 EHGG     GRONINGEN/EELDE   NLD   5 m.
TAF EHGG 051708Z 0518/0624 33006KT CAVOK
    TEMPO 0605/0615 9999 BKN014
    PROB30 TEMPO 0606/0614 7000 -RA -SHRA BKN012 FEW015TCU
    BECMG 0620/0623 5000 BR=

ZCZC
FT051700 EHBK     MAASTRICHT/MAASTRICHT-AACHEN   NLD   114 m.
TAF EHBK 051708Z 0518/0624 06005KT CAVOK=

ZCZC
FT051700 EHEH     EINDHOVEN/EINDHOVEN   NLD   22 m.
TAF EHEH 051733Z 0518/0624 03005KT CAVOK=

05/03/2021 19.15 uur LT